Station Historical Data
 
Daily Summary for April 26, 2019 Units:  Metric    English   Both
« Previous Day
Next Day »
Daily Weekly Monthly Yearly Custom
  Current: High: Low: Average:
Temperature: 21.3 °C 21.3 °C 13.3 °C 16.8 °C
Dew Point: 5.6 °C 9.2 °C 2.9 °C 5.3 °C
Humidity: 36% 61% 35% 47%
Wind Speed: 9.7km/h 12.9km/h 0.0km/h 5.3km/h
Wind Gust: 19.3km/h 29.0km/h - -
WindSouth - - SW
Pressure: 1021.0 hPa 1021.2 hPa 1015.9 hPa -
Precipitation: 0.0 mm      
Historical Graphs
 
 
Tabular Data for April 26, 2019
Time Temperature Dew Point Pressure Wind Wind Speed Wind Gust Humidity Rainfall Rate (Hourly) solar Conditions
00:00 16.3 °C 7.0 °C 1015.9 hPa WSW 11.3 km/h 20.9 km/h 54% 0.0 mm 0.00 W/m2 CLR
00:05 16.6 °C 7.5 °C 1016.1 hPa SW 3.2 km/h 14.5 km/h 55% 0.0 mm 0.00 W/m2 CLR
00:10 16.7 °C 8.7 °C 1016.1 hPa Calm   3.2 km/h 59% 0.0 mm 0.00 W/m2 CLR
00:15 16.7 °C 9.2 °C 1016.3 hPa Calm   4.8 km/h 61% 0.0 mm 0.00 W/m2 CLR
00:20 16.6 °C 8.3 °C 1016.3 hPa West 1.6 km/h 4.8 km/h 58% 0.0 mm 0.00 W/m2 CLR
00:25 16.6 °C 8.8 °C 1016.4 hPa Calm   4.8 km/h 60% 0.0 mm 0.00 W/m2 CLR
00:30 16.5 °C 8.9 °C 1016.5 hPa SW 4.8 km/h 16.1 km/h 61% 0.0 mm 0.00 W/m2 CLR
00:35 16.3 °C 5.9 °C 1016.4 hPa West 8.0 km/h 27.4 km/h 50% 0.0 mm 0.00 W/m2 CLR
00:40 16.6 °C 5.2 °C 1016.3 hPa West 8.0 km/h 25.7 km/h 47% 0.0 mm 0.00 W/m2 CLR
00:45 16.7 °C 5.1 °C 1016.3 hPa West 3.2 km/h 19.3 km/h 46% 0.0 mm 0.00 W/m2 CLR
00:50 16.8 °C 5.1 °C 1016.3 hPa NW 8.0 km/h 16.1 km/h 46% 0.0 mm 0.00 W/m2 CLR
00:55 16.7 °C 5.1 °C 1016.3 hPa NW 11.3 km/h 16.1 km/h 46% 0.0 mm 0.00 W/m2 CLR
01:05 16.6 °C 4.9 °C 1016.4 hPa NNW 3.2 km/h 14.5 km/h 46% 0.0 mm 0.00 W/m2 CLR
01:10 16.5 °C 4.5 °C 1016.5 hPa NW 8.0 km/h 22.5 km/h 45% 0.0 mm 0.00 W/m2 CLR
01:15 16.5 °C 3.9 °C 1016.6 hPa WNW 12.9 km/h 19.3 km/h 43% 0.0 mm 0.00 W/m2 CLR
01:20 16.6 °C 3.9 °C 1016.6 hPa WSW 9.7 km/h 19.3 km/h 43% 0.0 mm 0.00 W/m2 CLR
01:30 16.6 °C 3.7 °C 1016.7 hPa West 4.8 km/h 19.3 km/h 42% 0.0 mm 0.00 W/m2 CLR
01:35 16.7 °C 3.7 °C 1016.6 hPa West 9.7 km/h 19.3 km/h 42% 0.0 mm 0.00 W/m2 CLR
01:40 16.6 °C 3.3 °C 1016.5 hPa WSW 9.7 km/h 27.4 km/h 41% 0.0 mm 0.00 W/m2 CLR
01:45 16.6 °C 3.6 °C 1016.6 hPa SW 3.2 km/h 14.5 km/h 42% 0.0 mm 0.00 W/m2 CLR
01:50 16.6 °C 3.6 °C 1016.6 hPa WSW 1.6 km/h 8.0 km/h 42% 0.0 mm 0.00 W/m2 CLR
01:55 16.6 °C 3.2 °C 1016.6 hPa Calm   9.7 km/h 41% 0.0 mm 0.00 W/m2 CLR
02:00 16.5 °C 3.2 °C 1016.5 hPa WSW 3.2 km/h 9.7 km/h 41% 0.0 mm 0.00 W/m2 CLR
02:05 16.4 °C 3.5 °C 1016.6 hPa West 1.6 km/h 11.3 km/h 42% 0.0 mm 0.00 W/m2 CLR
02:10 16.4 °C 3.4 °C 1016.6 hPa North 9.7 km/h 29.0 km/h 42% 0.0 mm 0.00 W/m2 CLR
02:15 16.3 °C 3.7 °C 1016.6 hPa NW 3.2 km/h 16.1 km/h 43% 0.0 mm 0.00 W/m2 CLR
02:20 16.2 °C 3.9 °C 1016.7 hPa NW 3.2 km/h 8.0 km/h 44% 0.0 mm 0.00 W/m2 CLR
02:25 16.1 °C 3.8 °C 1016.6 hPa WNW 8.0 km/h 12.9 km/h 44% 0.0 mm 0.00 W/m2 CLR
02:30 16.1 °C 4.1 °C 1016.8 hPa West 4.8 km/h 11.3 km/h 45% 0.0 mm 0.00 W/m2 CLR
02:35 15.9 °C 4.0 °C 1016.7 hPa WNW 1.6 km/h 16.1 km/h 45% 0.0 mm 0.00 W/m2 CLR
02:40 15.8 °C 3.9 °C 1016.7 hPa NNW 4.8 km/h 12.9 km/h 45% 0.0 mm 0.00 W/m2 CLR
02:45 15.8 °C 3.6 °C 1016.7 hPa WSW 11.3 km/h 19.3 km/h 44% 0.0 mm 0.00 W/m2 CLR
02:55 16.1 °C 3.2 °C 1016.7 hPa WSW 11.3 km/h 20.9 km/h 42% 0.0 mm 0.00 W/m2 CLR
03:00 16.2 °C 3.2 °C 1016.8 hPa SW 4.8 km/h 16.1 km/h 42% 0.0 mm 0.00 W/m2 CLR
03:05 16.2 °C 3.2 °C 1016.9 hPa SW 8.0 km/h 11.3 km/h 42% 0.0 mm 0.00 W/m2 CLR
03:15 15.9 °C 3.4 °C 1017.0 hPa NNW 3.2 km/h 12.9 km/h 43% 0.0 mm 0.00 W/m2 CLR
03:25 15.8 °C 2.9 °C 1017.1 hPa NE 1.6 km/h 6.4 km/h 42% 0.0 mm 0.00 W/m2 CLR
03:30 15.8 °C 3.6 °C 1017.1 hPa North 1.6 km/h 4.8 km/h 44% 0.0 mm 0.00 W/m2 CLR
03:35 15.7 °C 3.4 °C 1017.2 hPa North 1.6 km/h 4.8 km/h 44% 0.0 mm 0.00 W/m2 CLR
03:45 15.5 °C 3.6 °C 1017.1 hPa NNW 3.2 km/h 8.0 km/h 45% 0.0 mm 0.00 W/m2 CLR
03:50 15.3 °C 3.8 °C 1017.1 hPa NNW 1.6 km/h 6.4 km/h 46% 0.0 mm 0.00 W/m2 CLR
03:55 15.2 °C 3.4 °C 1017.1 hPa NW 4.8 km/h 9.7 km/h 45% 0.0 mm 0.00 W/m2 CLR
04:00 15.2 °C 3.6 °C 1017.1 hPa WNW 1.6 km/h 11.3 km/h 46% 0.0 mm 0.00 W/m2 CLR
04:05 15.1 °C 3.6 °C 1017.1 hPa NW 4.8 km/h 12.9 km/h 46% 0.0 mm 0.00 W/m2 CLR
04:15 15.1 °C 3.6 °C 1017.3 hPa NNW 4.8 km/h 14.5 km/h 46% 0.0 mm 0.00 W/m2 CLR
04:20 15.1 °C 3.6 °C 1017.4 hPa NNW 9.7 km/h 14.5 km/h 46% 0.0 mm 0.00 W/m2 CLR
04:25 15.2 °C 3.6 °C 1017.4 hPa North 3.2 km/h 12.9 km/h 46% 0.0 mm 0.00 W/m2 CLR
04:30 15.2 °C 3.9 °C 1017.3 hPa NW 3.2 km/h 6.4 km/h 47% 0.0 mm 0.00 W/m2 CLR
04:35 15.1 °C 4.1 °C 1017.4 hPa Calm   8.0 km/h 48% 0.0 mm 0.00 W/m2 CLR
04:45 14.8 °C 4.2 °C 1017.6 hPa NNW 1.6 km/h 3.2 km/h 49% 0.0 mm 0.00 W/m2 CLR
04:55 14.6 °C 4.3 °C 1017.6 hPa NNW 1.6 km/h 4.8 km/h 50% 0.0 mm 0.00 W/m2 CLR
05:00 14.4 °C 4.2 °C 1017.7 hPa NNW 3.2 km/h 4.8 km/h 50% 0.0 mm 0.00 W/m2 CLR
05:05 14.3 °C 4.1 °C 1017.7 hPa WNW 4.8 km/h 12.9 km/h 50% 0.0 mm 0.00 W/m2 CLR
05:10 14.4 °C 4.2 °C 1017.8 hPa WSW 3.2 km/h 14.5 km/h 50% 0.0 mm 0.00 W/m2 CLR
05:20 14.4 °C 4.4 °C 1017.8 hPa Calm   14.5 km/h 51% 0.0 mm 0.00 W/m2 CLR
05:25 14.4 °C 4.4 °C 1017.9 hPa WSW 8.0 km/h 16.1 km/h 51% 0.0 mm 0.00 W/m2 CLR
05:30 14.6 °C 4.5 °C 1017.9 hPa WSW 11.3 km/h 16.1 km/h 51% 0.0 mm 0.00 W/m2 CLR
05:40 14.7 °C 4.6 °C 1018.1 hPa WSW 9.7 km/h 19.3 km/h 51% 0.0 mm 0.00 W/m2 CLR
05:45 14.7 °C 4.7 °C 1018.2 hPa West 9.7 km/h 19.3 km/h 51% 0.0 mm 0.00 W/m2 CLR
05:50 14.8 °C 4.7 °C 1018.3 hPa WSW 12.9 km/h 20.9 km/h 51% 0.0 mm 0.00 W/m2 CLR
06:00 14.8 °C 4.7 °C 1018.3 hPa WSW 8.0 km/h 19.3 km/h 51% 0.0 mm 0.00 W/m2 CLR
06:05 14.7 °C 4.7 °C 1018.4 hPa SW 8.0 km/h 24.1 km/h 51% 0.0 mm 0.00 W/m2 CLR
06:10 14.7 °C 4.9 °C 1018.4 hPa WSW 8.0 km/h 19.3 km/h 52% 0.0 mm 0.00 W/m2 CLR
06:15 14.7 °C 4.9 °C 1018.4 hPa WSW 8.0 km/h 20.9 km/h 52% 0.0 mm 0.00 W/m2 CLR
06:25 14.4 °C 4.7 °C 1018.4 hPa WSW 1.6 km/h 9.7 km/h 52% 0.0 mm 0.00 W/m2 CLR
06:30 14.3 °C 4.9 °C 1018.6 hPa SW 3.2 km/h 4.8 km/h 53% 0.0 mm 0.00 W/m2 CLR
06:35 14.3 °C 4.8 °C 1018.8 hPa SW 1.6 km/h 6.4 km/h 53% 0.0 mm 0.00 W/m2 CLR
06:40 14.2 °C 5.1 °C 1018.9 hPa SW 1.6 km/h 4.8 km/h 54% 0.0 mm 0.00 W/m2 CLR
06:45 14.1 °C 5.2 °C 1019.1 hPa ENE 1.6 km/h 6.4 km/h 55% 0.0 mm 0.00 W/m2 CLR
06:50 13.9 °C 5.1 °C 1019.1 hPa NNE 1.6 km/h 6.4 km/h 55% 0.0 mm 0.00 W/m2 CLR
06:55 13.8 °C 4.9 °C 1019.1 hPa NNW 3.2 km/h 4.8 km/h 55% 0.0 mm 0.00 W/m2 CLR
07:05 13.6 °C 4.9 °C 1019.3 hPa Calm   12.9 km/h 56% 0.0 mm 0.00 W/m2 OVC
07:10 13.4 °C 5.1 °C 1019.4 hPa Calm   3.2 km/h 57% 0.0 mm 6.00 W/m2 OVC
07:15 13.3 °C 4.7 °C 1019.3 hPa West 1.6 km/h 9.7 km/h 56% 0.0 mm 8.40 W/m2 CLR
07:25 13.3 °C 5.0 °C 1019.1 hPa WSW 9.7 km/h 12.9 km/h 57% 0.0 mm 14.40 W/m2 SCT
07:30 13.4 °C 4.8 °C 1019.2 hPa WSW 4.8 km/h 19.3 km/h 56% 0.0 mm 19.20 W/m2 SCT
07:35 13.6 °C 4.9 °C 1019.3 hPa West 3.2 km/h 19.3 km/h 56% 0.0 mm 21.60 W/m2 SCT
07:45 13.8 °C 4.6 °C 1019.6 hPa NW 9.7 km/h 16.1 km/h 54% 0.0 mm 44.40 W/m2 SCT
07:55 13.9 °C 4.5 °C 1019.6 hPa WNW 4.8 km/h 12.9 km/h 53% 0.0 mm 82.80 W/m2 CLR
08:00 14.1 °C 4.3 °C 1019.7 hPa West 4.8 km/h 12.9 km/h 52% 0.0 mm 103.20 W/m2 CLR
08:05 14.3 °C 4.8 °C 1019.7 hPa West 3.2 km/h 9.7 km/h 53% 0.0 mm 124.80 W/m2 CLR
08:10 14.4 °C 5.0 °C 1019.7 hPa NNE 8.0 km/h 12.9 km/h 53% 0.0 mm 145.20 W/m2 CLR
08:15 14.6 °C 5.6 °C 1019.8 hPa NNE 4.8 km/h 11.3 km/h 55% 0.0 mm 170.40 W/m2 CLR
08:25 14.6 °C 4.8 °C 1019.8 hPa NW 3.2 km/h 11.3 km/h 52% 0.0 mm 223.20 W/m2 CLR
08:35 14.9 °C 5.1 °C 1020.0 hPa WNW 4.8 km/h 12.9 km/h 52% 0.0 mm 276.00 W/m2 CLR
08:40 15.1 °C 4.8 °C 1020.0 hPa WNW 3.2 km/h 9.7 km/h 50% 0.0 mm 303.60 W/m2 CLR
08:50 15.6 °C 4.7 °C 1019.9 hPa SW 3.2 km/h 9.7 km/h 48% 0.0 mm 344.40 W/m2 CLR
09:00 16.1 °C 4.4 °C 1019.9 hPa SW 1.6 km/h 8.0 km/h 46% 0.0 mm 387.60 W/m2 CLR
09:05 16.2 °C 5.2 °C 1019.9 hPa SW 1.6 km/h 8.0 km/h 48% 0.0 mm 411.60 W/m2 CLR
09:10 16.5 °C 5.4 °C 1020.1 hPa SSW 1.6 km/h 8.0 km/h 48% 0.0 mm 432.00 W/m2 CLR
09:20 16.7 °C 5.6 °C 1020.0 hPa SSW 4.8 km/h 14.5 km/h 48% 0.0 mm 472.80 W/m2 CLR
09:25 16.6 °C 5.6 °C 1020.2 hPa South 3.2 km/h 11.3 km/h 48% 0.0 mm 493.20 W/m2 CLR
09:35 16.6 °C 6.4 °C 1020.1 hPa SSW 4.8 km/h 9.7 km/h 51% 0.0 mm 537.60 W/m2 CLR
09:40 16.6 °C 6.4 °C 1020.2 hPa SSW 1.6 km/h 8.0 km/h 51% 0.0 mm 559.20 W/m2 CLR
09:45 16.8 °C 6.9 °C 1020.3 hPa South 3.2 km/h 11.3 km/h 52% 0.0 mm 579.60 W/m2 CLR
09:55 17.4 °C 6.6 °C 1020.4 hPa SSE 1.6 km/h 11.3 km/h 49% 0.0 mm 622.80 W/m2 CLR
10:00 17.7 °C 6.6 °C 1020.5 hPa Calm   4.8 km/h 48% 0.0 mm 640.80 W/m2 CLR
10:05 18.1 °C 6.6 °C 1020.6 hPa SE 8.0 km/h 11.3 km/h 47% 0.0 mm 662.40 W/m2 CLR
10:15 18.2 °C 7.6 °C 1020.6 hPa SSE 4.8 km/h 19.3 km/h 50% 0.0 mm 704.40 W/m2 CLR
10:20 18.2 °C 7.9 °C 1020.6 hPa SSE 3.2 km/h 12.9 km/h 51% 0.0 mm 726.00 W/m2 CLR
10:25 18.3 °C 7.1 °C 1020.6 hPa South 3.2 km/h 8.0 km/h 48% 0.0 mm 745.20 W/m2 CLR
10:30 18.4 °C 6.6 °C 1020.6 hPa South 4.8 km/h 11.3 km/h 46% 0.0 mm 759.60 W/m2 CLR
10:35 18.6 °C 7.9 °C 1020.8 hPa SSE 8.0 km/h 14.5 km/h 50% 0.0 mm 778.80 W/m2 CLR
10:40 18.6 °C 7.7 °C 1020.8 hPa SSE 3.2 km/h 14.5 km/h 49% 0.0 mm 799.20 W/m2 CLR
10:45 18.7 °C 7.1 °C 1020.7 hPa South 3.2 km/h 9.7 km/h 47% 0.0 mm 823.20 W/m2 CLR
10:50 18.5 °C 6.9 °C 1020.8 hPa SW 4.8 km/h 9.7 km/h 47% 0.0 mm 840.00 W/m2 CLR
10:55 18.7 °C 6.8 °C 1020.9 hPa SSW 3.2 km/h 9.7 km/h 46% 0.0 mm 856.80 W/m2 CLR
11:00 18.7 °C 6.2 °C 1020.9 hPa SSW 3.2 km/h 11.3 km/h 44% 0.0 mm 873.60 W/m2 CLR
11:05 18.9 °C 6.4 °C 1020.9 hPa SSW 8.0 km/h 11.3 km/h 44% 0.0 mm 890.40 W/m2 CLR
11:10 18.9 °C 7.1 °C 1020.9 hPa SSW 4.8 km/h 8.0 km/h 46% 0.0 mm 907.20 W/m2 CLR
11:15 18.7 °C 7.4 °C 1020.9 hPa SSW 4.8 km/h 9.7 km/h 48% 0.0 mm 924.00 W/m2 CLR
11:20 18.7 °C 7.1 °C 1020.9 hPa South 4.8 km/h 9.7 km/h 47% 0.0 mm 940.80 W/m2 CLR
11:25 19.1 °C 6.9 °C 1020.9 hPa SSE 8.0 km/h 11.3 km/h 45% 0.0 mm 957.60 W/m2 CLR
11:30 19.6 °C 7.6 °C 1021.0 hPa SE 4.8 km/h 11.3 km/h 46% 0.0 mm 972.00 W/m2 CLR
11:35 19.8 °C 7.2 °C 1021.0 hPa SE 9.7 km/h 14.5 km/h 44% 0.0 mm 987.60 W/m2 CLR
11:40 19.9 °C 7.9 °C 1021.0 hPa SSE 9.7 km/h 16.1 km/h 46% 0.0 mm 1002.00 W/m2 CLR
11:45 19.9 °C 8.3 °C 1021.1 hPa SSE 4.8 km/h 16.1 km/h 47% 0.0 mm 1016.40 W/m2 CLR
11:50 20.0 °C 8.0 °C 1021.1 hPa SE 8.0 km/h 16.1 km/h 46% 0.0 mm 1032.00 W/m2 CLR
11:55 19.9 °C 8.3 °C 1021.1 hPa SE 4.8 km/h 14.5 km/h 47% 0.0 mm 1044.00 W/m2 CLR
12:00 20.0 °C 8.3 °C 1021.1 hPa SSE 8.0 km/h 14.5 km/h 47% 0.0 mm 1052.40 W/m2 CLR
12:05 20.0 °C 7.4 °C 1021.2 hPa SSE 9.7 km/h 17.7 km/h 44% 0.0 mm 1065.60 W/m2 CLR
12:10 19.5 °C 6.3 °C 1021.2 hPa SSW 9.7 km/h 19.3 km/h 42% 0.0 mm 1075.20 W/m2 CLR
12:15 19.3 °C 7.1 °C 1021.1 hPa SSW 8.0 km/h 19.3 km/h 45% 0.0 mm 1088.40 W/m2 CLR
12:25 19.8 °C 6.5 °C 1021.1 hPa South 8.0 km/h 16.1 km/h 42% 0.0 mm 1111.20 W/m2 CLR
12:30 19.8 °C 6.6 °C 1021.2 hPa South 8.0 km/h 19.3 km/h 42% 0.0 mm 1122.00 W/m2 CLR
12:35 19.9 °C 6.3 °C 1021.1 hPa South 4.8 km/h 19.3 km/h 41% 0.0 mm 1130.40 W/m2 CLR
12:40 20.2 °C 6.2 °C 1021.2 hPa South 9.7 km/h 19.3 km/h 40% 0.0 mm 1141.20 W/m2 CLR
12:45 20.4 °C 5.9 °C 1021.2 hPa South 3.2 km/h 14.5 km/h 39% 0.0 mm 1147.20 W/m2 CLR
12:50 20.7 °C 5.4 °C 1021.2 hPa South 11.3 km/h 19.3 km/h 37% 0.0 mm 1155.60 W/m2 CLR
12:55 20.6 °C 5.8 °C 1021.2 hPa South 4.8 km/h 19.3 km/h 38% 0.0 mm 1164.00 W/m2 CLR
13:00 20.7 °C 5.4 °C 1021.2 hPa South 9.7 km/h 19.3 km/h 37% 0.0 mm 1172.40 W/m2 CLR
13:05 20.6 °C 5.4 °C 1021.2 hPa South 8.0 km/h 14.5 km/h 37% 0.0 mm 1180.80 W/m2 CLR
13:15 20.9 °C 5.3 °C 1021.1 hPa South 4.8 km/h 19.3 km/h 36% 0.0 mm 1194.00 W/m2 CLR
13:20 21.0 °C 4.9 °C 1021.1 hPa South 8.0 km/h 19.3 km/h 35% 0.0 mm 1196.40 W/m2 CLR
13:25 20.9 °C 4.9 °C 1021.1 hPa South 4.8 km/h 12.9 km/h 35% 0.0 mm 1200.00 W/m2 CLR
13:30 21.2 °C 5.9 °C 1021.1 hPa SSW 9.7 km/h 14.5 km/h 37% 0.0 mm 1202.40 W/m2 CLR
13:40 21.2 °C 5.2 °C 1021.1 hPa SSE 9.7 km/h 20.9 km/h 35% 0.0 mm 1208.40 W/m2 CLR
13:45 21.0 °C 5.3 °C 1021.0 hPa SSE 8.0 km/h 19.3 km/h 36% 0.0 mm 1208.40 W/m2 CLR
13:50 21.0 °C 5.7 °C 1021.0 hPa SSE 4.8 km/h 19.3 km/h 37% 0.0 mm 1215.60 W/m2 CLR
13:55 21.1 °C 5.8 °C 1021.0 hPa SSE 9.7 km/h 20.9 km/h 37% 0.0 mm 1215.60 W/m2 CLR
14:00 21.2 °C 5.5 °C 1021.0 hPa SSE 9.7 km/h 19.3 km/h 36% 0.0 mm 1215.60 W/m2 CLR
14:05 21.3 °C 5.6 °C 1021.0 hPa South 9.7 km/h 19.3 km/h 36% 0.0 mm 1215.60 W/m2 CLR
Juneau County Weather
Compliments of Weather Underground - 12.5 mb

past weather